Time;durP1;ratioP1;P1;durP2;ratioP2;P2;SDS_P1;SDS_P2;PMS_P1;PMS_P2;Temp;Humidity;BMP_temperature;BMP_pressure;BME280_temperature;BME280_humidity;BME280_pressure;Samples;Min_cycle;Max_cycle;Signal;HPM_P1;HPM_P2
2022/04/02 00:01:27;;;;;;;34.60;27.98;;;;;;;;;;5075743;28;20179;-74
2022/04/02 00:03:54;;;;;;;37.50;28.80;;;;;;;;;;5077005;28;20215;-75
2022/04/02 00:06:20;;;;;;;37.00;29.15;;;;;;;;;;5077013;28;20619;-73
2022/04/02 00:08:46;;;;;;;36.93;29.43;;;;;;;;;;5077021;28;20195;-75
2022/04/02 00:11:12;;;;;;;38.60;29.73;;;;;;;;;;5077138;28;20394;-76
2022/04/02 00:13:38;;;;;;;36.95;29.17;;;;;;;;;;5076832;28;20171;-73
2022/04/02 00:16:05;;;;;;;38.75;29.98;;;;;;;;;;5076843;28;20650;-76
2022/04/02 00:18:31;;;;;;;40.13;30.95;;;;;;;;;;5075411;28;20631;-75
2022/04/02 00:20:57;;;;;;;38.73;30.73;;;;;;;;;;5075384;28;20181;-76
2022/04/02 00:23:44;;;;;;;36.55;30.23;;;;;;;;;;5075200;28;20468;-74
2022/04/02 00:26:13;;;;;;;42.60;31.80;;;;;;;;;;5076649;28;20170;-75
2022/04/02 00:28:40;;;;;;;36.22;30.08;;;;;;;;;;5076506;28;20242;-75
2022/04/02 00:31:10;;;;;;;38.88;30.40;;;;;;;;;;5075287;28;20176;-72
2022/04/02 00:33:36;;;;;;;40.83;30.95;;;;;;;;;;5075064;28;20611;-73
2022/04/02 00:36:03;;;;;;;40.90;30.10;;;;;;;;;;5076520;28;20164;-77
2022/04/02 00:38:29;;;;;;;36.92;30.45;;;;;;;;;;5076355;28;20218;-75
2022/04/02 00:40:55;;;;;;;34.30;29.03;;;;;;;;;;5074912;28;20235;-74
2022/04/02 00:43:22;;;;;;;37.40;28.77;;;;;;;;;;5075002;28;20835;-75
2022/04/02 00:45:48;;;;;;;38.53;29.65;;;;;;;;;;5074975;28;20989;-74
2022/04/02 00:48:15;;;;;;;37.20;29.95;;;;;;;;;;5074856;28;20267;-76
2022/04/02 00:50:41;;;;;;;39.92;29.05;;;;;;;;;;5073965;28;20580;-72
2022/04/02 00:53:10;;;;;;;34.25;28.55;;;;;;;;;;5076141;28;20745;-74
2022/04/02 00:55:36;;;;;;;36.75;29.00;;;;;;;;;;5074767;28;20172;-75
2022/04/02 00:58:04;;;;;;;35.85;29.02;;;;;;;;;;5075994;28;20619;-74
2022/04/02 01:00:31;;;;;;;33.33;27.65;;;;;;;;;;5076002;28;20179;-74
2022/04/02 01:02:57;;;;;;;34.65;28.70;;;;;;;;;;5075896;28;20560;-73
2022/04/02 01:05:23;;;;;;;34.30;27.23;;;;;;;;;;5075856;28;20181;-74
2022/04/02 01:07:52;;;;;;;37.05;29.35;;;;;;;;;;5074535;28;20414;-74
2022/04/02 01:10:18;;;;;;;35.60;29.33;;;;;;;;;;5075743;28;20233;-75
2022/04/02 01:12:45;;;;;;;34.83;28.65;;;;;;;;;;5075727;28;20696;-74
2022/04/02 01:15:11;;;;;;;35.13;28.13;;;;;;;;;;5075702;28;20191;-73
2022/04/02 01:17:40;;;;;;;34.92;29.00;;;;;;;;;;5075607;28;20601;-75
2022/04/02 01:20:07;;;;;;;35.97;27.98;;;;;;;;;;5075683;28;20209;-74
2022/04/02 01:22:34;;;;;;;39.53;29.85;;;;;;;;;;5075573;28;20702;-75
2022/04/02 01:25:00;;;;;;;37.95;29.95;;;;;;;;;;5075497;28;20203;-75
2022/04/02 01:27:26;;;;;;;34.03;28.40;;;;;;;;;;5074170;28;20202;-75
2022/04/02 01:29:52;;;;;;;37.30;29.08;;;;;;;;;;5075431;28;20172;-75
2022/04/02 01:32:18;;;;;;;35.90;28.70;;;;;;;;;;5075397;28;20175;-74
2022/04/02 01:34:44;;;;;;;38.53;30.27;;;;;;;;;;5075322;28;20442;-76
2022/04/02 01:37:13;;;;;;;37.10;30.07;;;;;;;;;;5073982;28;20176;-76
2022/04/02 01:39:39;;;;;;;33.40;27.40;;;;;;;;;;5075085;28;20403;-72
2022/04/02 01:42:07;;;;;;;37.27;28.43;;;;;;;;;;5074382;28;20654;-73
2022/04/02 01:44:33;;;;;;;37.40;27.70;;;;;;;;;;5075311;28;21024;-72
2022/04/02 01:46:59;;;;;;;35.25;27.80;;;;;;;;;;5075329;28;20195;-72
2022/04/02 01:49:25;;;;;;;38.10;27.63;;;;;;;;;;5075479;28;20171;-73
2022/04/02 01:51:51;;;;;;;32.43;27.30;;;;;;;;;;5075425;28;20506;-73
2022/04/02 01:54:19;;;;;;;34.80;26.77;;;;;;;;;;5075133;28;20958;-73
2022/04/02 01:56:45;;;;;;;34.28;27.83;;;;;;;;;;5074926;28;20163;-73
2022/04/02 01:59:11;;;;;;;35.65;29.02;;;;;;;;;;5074889;28;20160;-73
2022/04/02 02:01:37;;;;;;;35.20;28.13;;;;;;;;;;5074655;28;20627;-73
2022/04/02 02:04:04;;;;;;;29.45;25.55;;;;;;;;;;5074675;28;20202;-72
2022/04/02 02:06:31;;;;;;;32.65;26.88;;;;;;;;;;5074726;28;20221;-72
2022/04/02 02:08:57;;;;;;;31.75;25.95;;;;;;;;;;5074813;28;20228;-72
2022/04/02 02:11:23;;;;;;;33.37;27.33;;;;;;;;;;5074633;28;20687;-73
2022/04/02 02:13:51;;;;;;;30.97;26.17;;;;;;;;;;5074497;28;20420;-73
2022/04/02 02:16:17;;;;;;;31.77;25.88;;;;;;;;;;5074747;28;20390;-73
2022/04/02 02:18:43;;;;;;;30.10;25.10;;;;;;;;;;5074381;28;20187;-73
2022/04/02 02:21:10;;;;;;;32.35;26.33;;;;;;;;;;5074684;28;20752;-72
2022/04/02 02:23:36;;;;;;;31.65;25.73;;;;;;;;;;5074291;28;20207;-73
2022/04/02 02:26:02;;;;;;;30.35;25.95;;;;;;;;;;5073135;28;20233;-73
2022/04/02 02:28:28;;;;;;;29.70;24.77;;;;;;;;;;5074249;28;20631;-74
2022/04/02 02:30:55;;;;;;;29.50;25.03;;;;;;;;;;5074198;28;20405;-73
2022/04/02 02:36:09;;;;;;;26.23;23.40;;;;;;;;;;5074381;28;20210;-74
2022/04/02 02:38:34;;;;;;;26.65;22.70;;;;;;;;;;5074034;28;20168;-72
2022/04/02 02:41:01;;;;;;;26.50;22.93;;;;;;;;;;5073811;28;20277;-72
2022/04/02 02:43:27;;;;;;;24.20;21.48;;;;;;;;;;5072929;28;20798;-73
2022/04/02 02:45:53;;;;;;;23.97;21.47;;;;;;;;;;5073956;28;20228;-72
2022/04/02 02:48:19;;;;;;;25.13;22.42;;;;;;;;;;5074058;28;20467;-72
2022/04/02 02:50:45;;;;;;;23.67;19.97;;;;;;;;;;5073852;28;20172;-73
2022/04/02 02:53:11;;;;;;;23.85;21.42;;;;;;;;;;5073833;28;20401;-72
2022/04/02 02:55:38;;;;;;;22.27;19.80;;;;;;;;;;5073893;28;20167;-74
2022/04/02 02:58:04;;;;;;;22.58;20.25;;;;;;;;;;5072448;28;20414;-72
2022/04/02 03:00:30;;;;;;;24.40;21.10;;;;;;;;;;5073769;28;20174;-72
2022/04/02 03:02:56;;;;;;;22.77;20.42;;;;;;;;;;5073623;28;20180;-72
2022/04/02 03:05:22;;;;;;;21.10;18.77;;;;;;;;;;5072387;28;20198;-73
2022/04/02 03:07:49;;;;;;;21.33;18.80;;;;;;;;;;5073638;28;20467;-74
2022/04/02 03:10:27;;;;;;;22.52;20.23;;;;;;;;;;5073878;28;20418;-72
2022/04/02 03:12:54;;;;;;;23.25;20.88;;;;;;;;;;5073184;28;20171;-73
2022/04/02 03:15:21;;;;;;;22.35;19.92;;;;;;;;;;5073800;28;20538;-73
2022/04/02 03:17:48;;;;;;;21.70;19.50;;;;;;;;;;5073513;28;20176;-72
2022/04/02 03:20:15;;;;;;;22.95;20.20;;;;;;;;;;5072205;28;20187;-73
2022/04/02 03:22:41;;;;;;;22.27;20.02;;;;;;;;;;5073417;28;20224;-72
2022/04/02 03:25:11;;;;;;;22.20;19.90;;;;;;;;;;5073399;28;20211;-72
2022/04/02 03:27:38;;;;;;;20.77;18.55;;;;;;;;;;5073472;28;20160;-73
2022/04/02 03:30:05;;;;;;;21.15;17.58;;;;;;;;;;5073482;28;20274;-72
2022/04/02 03:32:31;;;;;;;22.70;20.30;;;;;;;;;;5073301;28;20202;-73
2022/04/02 03:34:57;;;;;;;21.83;19.37;;;;;;;;;;5072118;28;20178;-73
2022/04/02 03:37:24;;;;;;;21.15;19.05;;;;;;;;;;5073352;28;20433;-73
2022/04/02 03:39:50;;;;;;;19.33;17.45;;;;;;;;;;5073226;28;20296;-73
2022/04/02 03:42:16;;;;;;;19.45;17.55;;;;;;;;;;5073308;28;20179;-73
2022/04/02 03:44:42;;;;;;;22.77;19.08;;;;;;;;;;5073183;28;20214;-73
2022/04/02 03:47:09;;;;;;;20.80;17.50;;;;;;;;;;5073137;28;20186;-72
2022/04/02 03:49:41;;;;;;;18.90;17.00;;;;;;;;;;5073220;28;20172;-72
2022/04/02 03:52:08;;;;;;;19.55;17.55;;;;;;;;;;5073251;28;20176;-74
2022/04/02 03:54:36;;;;;;;19.63;17.73;;;;;;;;;;5073129;28;20171;-72
2022/04/02 03:57:06;;;;;;;19.70;17.70;;;;;;;;;;5073102;28;20694;-73
2022/04/02 03:59:33;;;;;;;21.20;18.98;;;;;;;;;;5071901;28;20172;-72
2022/04/02 04:02:00;;;;;;;20.35;18.35;;;;;;;;;;5073047;28;20175;-72
2022/04/02 04:04:27;;;;;;;19.50;17.50;;;;;;;;;;5073007;28;20215;-74
2022/04/02 04:06:53;;;;;;;20.15;18.25;;;;;;;;;;5073085;28;20607;-72
2022/04/02 04:09:19;;;;;;;19.57;17.70;;;;;;;;;;5073016;28;20176;-72
2022/04/02 04:11:46;;;;;;;19.45;17.58;;;;;;;;;;5072986;28;20406;-73
2022/04/02 04:14:12;;;;;;;21.85;19.27;;;;;;;;;;5072943;28;20172;-73
2022/04/02 04:16:38;;;;;;;20.38;18.10;;;;;;;;;;5072925;28;20156;-73
2022/04/02 04:19:04;;;;;;;20.83;18.85;;;;;;;;;;5072848;28;20168;-72
2022/04/02 04:21:30;;;;;;;19.88;18.02;;;;;;;;;;5071609;28;20511;-73
2022/04/02 04:23:56;;;;;;;19.87;18.00;;;;;;;;;;5072824;28;20268;-72
2022/04/02 04:26:22;;;;;;;20.45;18.40;;;;;;;;;;5075640;28;20398;-72
2022/04/02 04:28:48;;;;;;;19.57;17.77;;;;;;;;;;5076577;28;20176;-73
2022/04/02 04:31:17;;;;;;;20.47;18.30;;;;;;;;;;5076555;28;20491;-73
2022/04/02 04:33:44;;;;;;;21.25;19.02;;;;;;;;;;5076498;28;20424;-73
2022/04/02 04:36:10;;;;;;;22.17;20.00;;;;;;;;;;5076467;28;20160;-73
2022/04/02 04:38:36;;;;;;;21.43;19.33;;;;;;;;;;5074995;28;20210;-73
2022/04/02 04:41:02;;;;;;;24.23;20.33;;;;;;;;;;5076464;28;20470;-73
2022/04/02 04:43:28;;;;;;;22.52;20.20;;;;;;;;;;5076306;28;20199;-72
2022/04/02 04:45:54;;;;;;;22.02;19.73;;;;;;;;;;5076271;28;20172;-71
2022/04/02 04:48:20;;;;;;;23.13;20.80;;;;;;;;;;5076188;28;20729;-72
2022/04/02 04:50:47;;;;;;;24.05;19.02;;;;;;;;;;5076468;28;20542;-72
2022/04/02 04:53:13;;;;;;;21.77;19.52;;;;;;;;;;5076249;28;20213;-72
2022/04/02 04:55:39;;;;;;;22.17;19.98;;;;;;;;;;5076178;28;20168;-71
2022/04/02 04:58:05;;;;;;;22.90;20.55;;;;;;;;;;5076041;28;20164;-72
2022/04/02 05:00:31;;;;;;;22.95;20.60;;;;;;;;;;5076038;28;20172;-72
2022/04/02 05:02:58;;;;;;;23.77;21.38;;;;;;;;;;5075936;28;20179;-71
2022/04/02 05:05:24;;;;;;;22.95;19.55;;;;;;;;;;5076146;28;20221;-72
2022/04/02 05:07:50;;;;;;;22.13;19.87;;;;;;;;;;5075943;28;20172;-72
2022/04/02 05:10:16;;;;;;;22.20;19.90;;;;;;;;;;5076068;28;20465;-73
2022/04/02 05:12:42;;;;;;;24.67;21.10;;;;;;;;;;5075812;28;20242;-71
2022/04/02 05:15:09;;;;;;;21.75;19.58;;;;;;;;;;5075885;28;20256;-72
2022/04/02 05:17:38;;;;;;;21.70;19.60;;;;;;;;;;5074347;28;20710;-72
2022/04/02 05:20:07;;;;;;;23.95;21.13;;;;;;;;;;5075622;28;20176;-72
2022/04/02 05:22:33;;;;;;;22.65;20.23;;;;;;;;;;5075617;28;20179;-73
2022/04/02 05:24:59;;;;;;;25.80;21.35;;;;;;;;;;5075523;28;20211;-73
2022/04/02 05:27:25;;;;;;;26.85;24.15;;;;;;;;;;5075379;28;20164;-74
2022/04/02 05:29:52;;;;;;;21.75;19.60;;;;;;;;;;5075780;28;20569;-71
2022/04/02 05:32:18;;;;;;;20.45;18.40;;;;;;;;;;5075334;28;20202;-71
2022/04/02 05:34:44;;;;;;;22.60;20.33;;;;;;;;;;5075280;28;20172;-71
2022/04/02 05:37:10;;;;;;;21.77;19.37;;;;;;;;;;5074929;28;20163;-71
2022/04/02 05:39:36;;;;;;;22.27;20.07;;;;;;;;;;5073792;28;20936;-72
2022/04/02 05:42:02;;;;;;;21.08;19.15;;;;;;;;;;5075220;28;20425;-72
2022/04/02 05:44:29;;;;;;;23.05;20.65;;;;;;;;;;5075110;28;20260;-72
2022/04/02 05:46:55;;;;;;;21.20;19.10;;;;;;;;;;5073790;28;20175;-71
2022/04/02 05:49:21;;;;;;;20.40;18.40;;;;;;;;;;5075166;28;20178;-72
2022/04/02 05:51:48;;;;;;;22.27;19.63;;;;;;;;;;5074981;28;20410;-71
2022/04/02 05:54:14;;;;;;;22.52;20.23;;;;;;;;;;5075018;28;20505;-73
2022/04/02 05:56:41;;;;;;;20.92;18.92;;;;;;;;;;5074923;28;20203;-72
2022/04/02 05:59:08;;;;;;;21.33;18.92;;;;;;;;;;5074977;28;20627;-72
2022/04/02 06:01:35;;;;;;;20.58;18.67;;;;;;;;;;5074811;28;20207;-72
2022/04/02 06:04:02;;;;;;;19.67;17.80;;;;;;;;;;5074704;28;20282;-72
2022/04/02 06:06:28;;;;;;;19.95;18.05;;;;;;;;;;5074766;28;20155;-72
2022/04/02 06:08:54;;;;;;;19.97;17.93;;;;;;;;;;5074706;28;20229;-70
2022/04/02 06:11:20;;;;;;;20.20;18.27;;;;;;;;;;5074673;28;20398;-72
2022/04/02 06:13:46;;;;;;;24.65;21.80;;;;;;;;;;5074534;28;20494;-72
2022/04/02 06:16:12;;;;;;;21.33;19.07;;;;;;;;;;5074553;28;20218;-72
2022/04/02 06:18:38;;;;;;;20.83;18.83;;;;;;;;;;5074435;28;20429;-72
2022/04/02 06:21:04;;;;;;;19.97;18.00;;;;;;;;;;5074419;28;20489;-72
2022/04/02 06:23:31;;;;;;;18.73;16.83;;;;;;;;;;5074245;28;20476;-73
2022/04/02 06:25:57;;;;;;;20.13;18.05;;;;;;;;;;5074323;28;20405;-73
2022/04/02 06:28:23;;;;;;;19.55;17.55;;;;;;;;;;5074323;28;20172;-74
2022/04/02 06:30:49;;;;;;;23.52;21.23;;;;;;;;;;5073031;28;20190;-72
2022/04/02 06:33:15;;;;;;;19.98;18.02;;;;;;;;;;5074151;28;20711;-72
2022/04/02 06:35:41;;;;;;;19.13;17.33;;;;;;;;;;5074187;28;20240;-71
2022/04/02 06:38:07;;;;;;;18.20;16.45;;;;;;;;;;5074172;28;20534;-71
2022/04/02 06:40:33;;;;;;;20.27;18.37;;;;;;;;;;5073891;28;20219;-72
2022/04/02 06:43:00;;;;;;;20.08;17.98;;;;;;;;;;5074031;28;20471;-72
2022/04/02 06:45:26;;;;;;;20.83;18.20;;;;;;;;;;5073974;28;20206;-72
2022/04/02 06:47:52;;;;;;;18.15;16.42;;;;;;;;;;5073181;28;20229;-71
2022/04/02 06:50:19;;;;;;;18.30;16.60;;;;;;;;;;5073854;28;20628;-72
2022/04/02 06:52:45;;;;;;;22.83;18.05;;;;;;;;;;5073796;28;20208;-71
2022/04/02 06:55:12;;;;;;;19.77;17.77;;;;;;;;;;5073809;28;20164;-71
2022/04/02 06:57:45;;;;;;;17.52;15.93;;;;;;;;;;5073698;28;20205;-70
2022/04/02 07:00:11;;;;;;;18.15;15.70;;;;;;;;;;5073842;28;20191;-70
2022/04/02 07:02:38;;;;;;;16.70;15.15;;;;;;;;;;5073877;28;20183;-70
2022/04/02 07:05:05;;;;;;;19.27;17.48;;;;;;;;;;5073572;28;20689;-70
2022/04/02 07:07:31;;;;;;;17.27;15.80;;;;;;;;;;5073516;28;20164;-70
2022/04/02 07:09:57;;;;;;;14.50;13.30;;;;;;;;;;5073590;28;20172;-70
2022/04/02 07:12:22;;;;;;;16.05;14.45;;;;;;;;;;5073513;28;20830;-68
2022/04/02 07:14:48;;;;;;;16.40;14.90;;;;;;;;;;5072308;28;20201;-69
2022/04/02 07:17:15;;;;;;;13.63;12.43;;;;;;;;;;5073412;28;20505;-68
2022/04/02 07:19:41;;;;;;;14.98;13.45;;;;;;;;;;5073543;28;20509;-69
2022/04/02 07:22:11;;;;;;;13.93;12.82;;;;;;;;;;5073437;28;20171;-69
2022/04/02 07:24:40;;;;;;;13.35;12.00;;;;;;;;;;5073289;28;20599;-66
2022/04/02 07:27:09;;;;;;;14.00;12.85;;;;;;;;;;5073401;28;20176;-67
2022/04/02 07:29:35;;;;;;;14.32;13.07;;;;;;;;;;5073436;28;20175;-67
2022/04/02 07:32:02;;;;;;;13.90;12.50;;;;;;;;;;5073329;28;20168;-72
2022/04/02 07:34:28;;;;;;;12.75;11.15;;;;;;;;;;5073317;28;20255;-72
2022/04/02 07:37:00;;;;;;;12.50;11.50;;;;;;;;;;5073218;28;20171;-72
2022/04/02 07:39:26;;;;;;;13.70;12.60;;;;;;;;;;5073309;28;20174;-72
2022/04/02 07:42:04;;;;;;;13.43;12.33;;;;;;;;;;5073267;28;20176;-72
2022/04/02 07:44:31;;;;;;;12.63;11.73;;;;;;;;;;5071845;28;20477;-69
2022/04/02 07:46:58;;;;;;;12.27;11.38;;;;;;;;;;5073123;28;20156;-73
2022/04/02 07:49:26;;;;;;;12.25;11.27;;;;;;;;;;5071930;28;20195;-70
2022/04/02 07:51:53;;;;;;;12.88;11.93;;;;;;;;;;5073103;28;20160;-68
2022/04/02 07:54:22;;;;;;;13.05;11.85;;;;;;;;;;5071893;28;20620;-71
2022/04/02 07:56:49;;;;;;;11.55;10.57;;;;;;;;;;5073104;28;20163;-74
2022/04/02 07:59:19;;;;;;;11.85;10.85;;;;;;;;;;5074177;28;20254;-72
2022/04/02 08:01:46;;;;;;;11.45;10.60;;;;;;;;;;5077041;28;20171;-69
2022/04/02 08:04:12;;;;;;;12.02;11.15;;;;;;;;;;5076959;28;20269;-72
2022/04/02 08:06:39;;;;;;;11.90;11.05;;;;;;;;;;5077081;28;20176;-72
2022/04/02 08:09:07;;;;;;;10.70;9.95;;;;;;;;;;5076945;28;20176;-73
2022/04/02 08:11:34;;;;;;;10.52;9.77;;;;;;;;;;5076925;28;20564;-72
2022/04/02 08:14:01;;;;;;;9.80;9.13;;;;;;;;;;5076862;28;20213;-72
2022/04/02 08:16:27;;;;;;;10.05;9.45;;;;;;;;;;5075601;28;20534;-66
2022/04/02 08:18:57;;;;;;;10.60;9.25;;;;;;;;;;5076763;28;20176;-70
2022/04/02 08:21:23;;;;;;;9.93;9.30;;;;;;;;;;5076846;28;20744;-72
2022/04/02 08:23:52;;;;;;;10.75;9.95;;;;;;;;;;5076671;28;20199;-72
2022/04/02 08:26:27;;;;;;;25.10;21.00;;;;;;;;;;5076650;28;20224;-71
2022/04/02 08:29:16;;;;;;;25.17;19.00;;;;;;;;;;5075235;28;20191;-72
2022/04/02 08:31:56;;;;;;;14.70;13.30;;;;;;;;;;5048262;28;20666;-73
2022/04/02 08:34:49;;;;;;;10.95;9.57;;;;;;;;;;5076569;28;20160;-70
2022/04/02 08:37:18;;;;;;;12.77;11.68;;;;;;;;;;5060803;28;20245;-71
2022/04/02 08:40:03;;;;;;;11.57;10.77;;;;;;;;;;5075035;28;20176;-68
2022/04/02 08:42:47;;;;;;;13.05;11.80;;;;;;;;;;5076729;28;20176;-70
2022/04/02 08:45:15;;;;;;;15.15;13.60;;;;;;;;;;5076452;28;20437;-69
2022/04/02 08:47:56;;;;;;;12.50;11.45;;;;;;;;;;5076260;28;20222;-68
2022/04/02 08:50:34;;;;;;;14.38;13.23;;;;;;;;;;5076407;28;20172;-69
2022/04/02 08:53:15;;;;;;;11.00;10.20;;;;;;;;;;5076133;28;20188;-72
2022/04/02 08:56:04;;;;;;;11.20;10.38;;;;;;;;;;5076380;28;20221;-71
2022/04/02 08:58:30;;;;;;;11.50;10.60;;;;;;;;;;5068048;28;20200;-70
2022/04/02 09:01:04;;;;;;;11.80;10.77;;;;;;;;;;5075907;28;20175;-71
2022/04/02 09:03:36;;;;;;;9.40;8.80;;;;;;;;;;5075951;28;20515;-70
2022/04/02 09:06:02;;;;;;;10.15;9.32;;;;;;;;;;5075961;28;20179;-68
2022/04/02 09:08:56;;;;;;;10.30;9.60;;;;;;;;;;5075890;28;20164;-69
2022/04/02 09:11:40;;;;;;;9.93;9.23;;;;;;;;;;5075380;28;20802;-69
2022/04/02 09:14:09;;;;;;;9.48;8.88;;;;;;;;;;5075708;28;20618;-69
2022/04/02 09:16:37;;;;;;;12.55;9.82;;;;;;;;;;5075780;28;20183;-69
2022/04/02 09:19:23;;;;;;;10.30;9.40;;;;;;;;;;5075529;28;20176;-68
2022/04/02 09:21:56;;;;;;;9.38;8.77;;;;;;;;;;5075641;28;20239;-69
2022/04/02 09:24:41;;;;;;;10.05;9.45;;;;;;;;;;5075809;28;20282;-69
2022/04/02 09:27:17;;;;;;;13.20;12.00;;;;;;;;;;5075527;28;20262;-70
2022/04/02 09:29:48;;;;;;;10.80;9.90;;;;;;;;;;5075488;28;20510;-69
2022/04/02 09:32:34;;;;;;;9.73;9.02;;;;;;;;;;5075380;28;20187;-69
2022/04/02 09:35:15;;;;;;;10.95;9.82;;;;;;;;;;5075452;28;20209;-70
2022/04/02 09:37:41;;;;;;;8.27;7.78;;;;;;;;;;5075375;28;20225;-70
2022/04/02 09:40:11;;;;;;;11.77;10.80;;;;;;;;;;5075160;28;20263;-68
2022/04/02 09:42:37;;;;;;;7.65;6.93;;;;;;;;;;5073992;28;20475;-69
2022/04/02 09:45:04;;;;;;;11.43;10.30;;;;;;;;;;5073865;28;20214;-67
2022/04/02 09:47:37;;;;;;;19.60;14.93;;;;;;;;;;5073779;28;20210;-68
2022/04/02 09:50:06;;;;;;;7.78;7.38;;;;;;;;;;5074998;28;20160;-67
2022/04/02 09:52:33;;;;;;;23.65;16.55;;;;;;;;;;5074940;28;20166;-69
2022/04/02 09:55:02;;;;;;;9.88;9.18;;;;;;;;;;5075037;28;20196;-66
2022/04/02 09:57:34;;;;;;;12.38;11.23;;;;;;;;;;5074891;28;20168;-66
2022/04/02 10:00:07;;;;;;;13.68;12.45;;;;;;;;;;5074986;28;20168;-68
2022/04/02 10:02:42;;;;;;;9.15;8.43;;;;;;;;;;5074667;28;20175;-63
2022/04/02 10:05:14;;;;;;;12.68;11.27;;;;;;;;;;5074991;28;20563;-67
2022/04/02 10:07:59;;;;;;;8.02;7.40;;;;;;;;;;5075008;28;20214;-65
2022/04/02 10:10:29;;;;;;;7.25;6.88;;;;;;;;;;5074703;28;20183;-66
2022/04/02 10:12:55;;;;;;;8.60;8.10;;;;;;;;;;5074663;28;20646;-65
2022/04/02 10:15:23;;;;;;;11.27;10.38;;;;;;;;;;5074631;28;20195;-66
2022/04/02 10:17:53;;;;;;;8.20;7.80;;;;;;;;;;5074428;28;20617;-70
2022/04/02 10:20:20;;;;;;;8.52;8.10;;;;;;;;;;5074527;28;20581;-68
2022/04/02 10:22:47;;;;;;;8.88;8.38;;;;;;;;;;5073457;28;20156;-69
2022/04/02 10:25:14;;;;;;;9.57;8.98;;;;;;;;;;5074326;28;20203;-68
2022/04/02 10:27:41;;;;;;;9.95;9.15;;;;;;;;;;5074393;28;20167;-68
2022/04/02 10:30:11;;;;;;;8.57;7.97;;;;;;;;;;5074363;28;20171;-70
2022/04/02 10:32:46;;;;;;;8.73;8.23;;;;;;;;;;5074186;28;20178;-76
2022/04/02 10:35:13;;;;;;;6.45;6.07;;;;;;;;;;5074323;28;20220;-73
2022/04/02 10:37:42;;;;;;;7.40;7.10;;;;;;;;;;5074223;28;20631;-79
2022/04/02 10:40:10;;;;;;;8.25;7.65;;;;;;;;;;5074053;28;20222;-82
2022/04/02 10:42:37;;;;;;;8.60;8.07;;;;;;;;;;5074195;28;20175;-68
2022/04/02 10:45:07;;;;;;;10.50;9.70;;;;;;;;;;5074035;28;20208;-80
2022/04/02 10:47:38;;;;;;;11.98;10.88;;;;;;;;;;5073958;28;20182;-76
2022/04/02 10:50:06;;;;;;;11.25;10.15;;;;;;;;;;5073894;28;20171;-76
2022/04/02 10:52:32;;;;;;;9.95;9.25;;;;;;;;;;5073894;28;20163;-75
2022/04/02 10:54:59;;;;;;;11.60;10.75;;;;;;;;;;5072541;28;20548;-70
2022/04/02 10:57:28;;;;;;;9.73;9.05;;;;;;;;;;5073808;28;20163;-68
2022/04/02 10:59:59;;;;;;;9.00;8.55;;;;;;;;;;5073901;28;20203;-69
2022/04/02 11:02:30;;;;;;;9.13;8.63;;;;;;;;;;5073624;28;20178;-69
2022/04/02 11:05:07;;;;;;;8.05;7.55;;;;;;;;;;5073596;28;20261;-68
2022/04/02 11:07:44;;;;;;;9.00;8.60;;;;;;;;;;5073750;28;20708;-70
2022/04/02 11:10:14;;;;;;;7.32;6.93;;;;;;;;;;5073555;28;20266;-69
2022/04/02 11:12:44;;;;;;;9.48;8.75;;;;;;;;;;5073436;28;20171;-70
2022/04/02 11:15:20;;;;;;;9.95;9.13;;;;;;;;;;5073553;28;20195;-68
2022/04/02 11:17:47;;;;;;;10.82;10.02;;;;;;;;;;5073431;28;20167;-69
2022/04/02 11:20:23;;;;;;;9.55;8.85;;;;;;;;;;5073436;28;20541;-71
2022/04/02 11:22:52;;;;;;;8.95;8.45;;;;;;;;;;5073637;28;20167;-68
2022/04/02 11:25:34;;;;;;;8.27;7.88;;;;;;;;;;5073262;28;20252;-66
2022/04/02 11:28:09;;;;;;;10.63;9.73;;;;;;;;;;5073508;28;20160;-67
2022/04/02 11:30:37;;;;;;;10.13;9.50;;;;;;;;;;5073721;28;20166;-68
2022/04/02 11:33:06;;;;;;;10.25;9.55;;;;;;;;;;5073647;28;20586;-70
2022/04/02 11:35:37;;;;;;;10.00;8.98;;;;;;;;;;5073000;28;20202;-70
2022/04/02 11:38:22;;;;;;;8.77;8.30;;;;;;;;;;5073358;28;20159;-70
2022/04/02 11:40:55;;;;;;;10.75;10.05;;;;;;;;;;5073275;28;20223;-70
2022/04/02 11:43:30;;;;;;;10.18;9.38;;;;;;;;;;5073248;28;20164;-71
2022/04/02 11:46:00;;;;;;;9.88;9.27;;;;;;;;;;5073207;28;20622;-68
2022/04/02 11:48:29;;;;;;;9.90;9.20;;;;;;;;;;5073124;28;20183;-68
2022/04/02 11:50:55;;;;;;;9.70;9.10;;;;;;;;;;5073280;28;20167;-69
2022/04/02 11:53:29;;;;;;;11.20;10.33;;;;;;;;;;5073236;28;20179;-67
2022/04/02 11:55:55;;;;;;;11.80;10.80;;;;;;;;;;5073140;28;20448;-68
2022/04/02 11:58:22;;;;;;;12.18;11.13;;;;;;;;;;5073161;28;20174;-68
2022/04/02 12:00:56;;;;;;;10.52;9.75;;;;;;;;;;5073005;28;20168;-68
2022/04/02 12:03:30;;;;;;;22.15;13.90;;;;;;;;;;5071726;28;20282;-67
2022/04/02 12:06:09;;;;;;;13.52;11.98;;;;;;;;;;5073113;28;20178;-66
2022/04/02 12:08:36;;;;;;;11.23;10.35;;;;;;;;;;5073039;28;20188;-67
2022/04/02 12:11:03;;;;;;;17.17;12.95;;;;;;;;;;5072962;28;20230;-69
2022/04/02 12:13:29;;;;;;;13.30;11.77;;;;;;;;;;5071646;28;20176;-69
2022/04/02 12:16:13;;;;;;;9.93;9.23;;;;;;;;;;5072953;28;20160;-68
2022/04/02 12:18:57;;;;;;;10.18;9.40;;;;;;;;;;5072882;28;20171;-71
2022/04/02 12:21:36;;;;;;;10.50;9.70;;;;;;;;;;5073316;28;20207;-74
2022/04/02 12:24:03;;;;;;;10.63;9.93;;;;;;;;;;5072717;28;20202;-69
2022/04/02 12:26:30;;;;;;;13.80;11.65;;;;;;;;;;5071608;28;20263;-69
2022/04/02 12:28:58;;;;;;;11.18;10.18;;;;;;;;;;5072843;28;20262;-69
2022/04/02 12:31:26;;;;;;;12.50;11.45;;;;;;;;;;5072763;28;20642;-69
2022/04/02 12:33:53;;;;;;;11.50;10.50;;;;;;;;;;5072596;28;20696;-72
2022/04/02 12:36:28;;;;;;;9.48;8.88;;;;;;;;;;5072976;28;20255;-77
2022/04/02 12:38:59;;;;;;;10.52;9.82;;;;;;;;;;5072719;28;20229;-76
2022/04/02 12:41:28;;;;;;;9.27;8.77;;;;;;;;;;5072454;28;20273;-72
2022/04/02 12:43:58;;;;;;;8.60;8.10;;;;;;;;;;5072645;28;20611;-72
2022/04/02 12:46:25;;;;;;;12.45;9.85;;;;;;;;;;5073861;28;20164;-71
2022/04/02 12:48:52;;;;;;;11.70;10.52;;;;;;;;;;5076211;28;20176;-74
2022/04/02 12:51:19;;;;;;;13.50;12.30;;;;;;;;;;5076247;28;20250;-71
2022/04/02 12:53:49;;;;;;;10.93;10.13;;;;;;;;;;5076448;28;20217;-74
2022/04/02 12:56:19;;;;;;;10.57;9.60;;;;;;;;;;5070980;28;20697;-75
2022/04/02 12:58:47;;;;;;;9.75;8.82;;;;;;;;;;5073332;28;20643;-78
2022/04/02 13:01:17;;;;;;;14.02;12.75;;;;;;;;;;5072378;28;20203;-74
2022/04/02 13:03:45;;;;;;;11.63;10.77;;;;;;;;;;5072295;28;20203;-74
2022/04/02 13:06:19;;;;;;;11.95;10.88;;;;;;;;;;5073509;28;20182;-76
2022/04/02 13:09:09;;;;;;;10.40;9.70;;;;;;;;;;5071880;28;20172;-74
2022/04/02 13:11:37;;;;;;;11.93;10.93;;;;;;;;;;5052153;28;20210;-75
2022/04/02 13:14:04;;;;;;;9.98;9.10;;;;;;;;;;5069781;28;20188;-75
2022/04/02 13:16:38;;;;;;;9.07;8.35;;;;;;;;;;5071787;28;20546;-75
2022/04/02 13:21:50;;;;;;;8.98;8.48;;;;;;;;;;5073405;28;20563;-73
2022/04/02 13:24:25;;;;;;;8.63;8.13;;;;;;;;;;5072900;28;20203;-73
2022/04/02 13:27:01;;;;;;;8.40;7.72;;;;;;;;;;5072967;28;20182;-75
2022/04/02 13:29:46;;;;;;;8.85;8.18;;;;;;;;;;5069447;28;20631;-71
2022/04/02 13:32:12;;;;;;;8.38;7.97;;;;;;;;;;5072705;28;20179;-73
2022/04/02 13:34:38;;;;;;;9.27;8.63;;;;;;;;;;5073252;28;20519;-69
2022/04/02 13:37:12;;;;;;;9.70;9.10;;;;;;;;;;5070214;28;20908;-71
2022/04/02 13:39:41;;;;;;;8.85;8.25;;;;;;;;;;5072636;28;20421;-71
2022/04/02 13:42:10;;;;;;;10.82;10.02;;;;;;;;;;5072487;28;20192;-72
2022/04/02 13:44:41;;;;;;;8.80;8.30;;;;;;;;;;5072472;28;20208;-72
2022/04/02 13:47:11;;;;;;;9.52;8.93;;;;;;;;;;5072551;28;20176;-75
2022/04/02 13:49:44;;;;;;;8.18;7.72;;;;;;;;;;5072449;28;20279;-72
2022/04/02 13:52:11;;;;;;;9.73;9.13;;;;;;;;;;5072488;28;20172;-71
2022/04/02 13:54:56;;;;;;;8.50;7.90;;;;;;;;;;5072233;28;20184;-72
2022/04/02 13:57:26;;;;;;;9.40;8.80;;;;;;;;;;5072115;28;20259;-74
2022/04/02 13:59:59;;;;;;;9.45;8.90;;;;;;;;;;5072224;28;20183;-72
2022/04/02 14:02:27;;;;;;;11.07;9.98;;;;;;;;;;5071031;28;20254;-71
2022/04/02 14:05:04;;;;;;;10.27;9.38;;;;;;;;;;5071785;28;20211;-71
2022/04/02 14:07:31;;;;;;;10.52;9.93;;;;;;;;;;5072133;28;20179;-73
2022/04/02 14:10:08;;;;;;;11.93;11.05;;;;;;;;;;5072270;28;20623;-70
2022/04/02 14:12:42;;;;;;;12.13;10.05;;;;;;;;;;5071299;28;20182;-72
2022/04/02 14:15:12;;;;;;;10.43;9.73;;;;;;;;;;5069689;28;20638;-70
2022/04/02 14:17:42;;;;;;;12.20;11.20;;;;;;;;;;5069844;28;20217;-75
2022/04/02 14:20:12;;;;;;;10.60;9.90;;;;;;;;;;5074510;28;20171;-71
2022/04/02 14:22:47;;;;;;;11.60;10.70;;;;;;;;;;5074471;28;20164;-70
2022/04/02 14:25:32;;;;;;;10.05;9.15;;;;;;;;;;5074317;28;20211;-70
2022/04/02 14:28:06;;;;;;;9.15;8.63;;;;;;;;;;5074375;28;20243;-73
2022/04/02 14:30:38;;;;;;;10.50;9.70;;;;;;;;;;5074426;28;20158;-75
2022/04/02 14:33:07;;;;;;;14.68;13.20;;;;;;;;;;5074275;28;20180;-69
2022/04/02 14:35:51;;;;;;;17.73;15.75;;;;;;;;;;5074326;28;20164;-71
2022/04/02 14:38:32;;;;;;;19.52;17.13;;;;;;;;;;5074109;28;20179;-71
2022/04/02 14:41:09;;;;;;;12.38;11.27;;;;;;;;;;5073940;28;20227;-72